PWSweather.com
Personal Weather Stations
Station Observations
IBRABANT12
Leuven, BlandenBE 3052

LeuvenBlandenBE 3052

Lat: 50.8252218, Lon: 4.709682799999996

Elevation: 193

Station Type: Davis Vantage Vue

http://www.weerstationblanden.be

Latest ConditionsUpdated 3:10:12 AM GMT+01:01 Sunday, Dec 11, 2016
Currently Today's Max Today's Min Today's Average
Temperature 48.9°F9.4°C 49.6°F9.8°C 48.1°F8.9°C 48.9°F9.4°C
Dew Point 47.0°F8.3°C 47.0°F8.3°C 44.9°F7.2°C 45.7°F7.6°C
Winds 9.8 mph SW15.8 kmh SW 15.0 mph WSW24.1 kmh WSW - 10.2 mph 16.4 kmh
Wind Gusts 12.0 mph19.3 kmh 21.0 mph33.8 kmh - -
Humidity 93% 94% 84% 89%
Pressure 30.02 in1016.6 mb 30.04 in1017.3 mb 30.00 in1015.9 mb -
Precipitation - 0.05 in1.3 mm - -
Hour Temp Dew Point Humidity Winds Wind Gusts Pressure Precip Precip Rate Daily Precip Total
03:10 AM 48.9°F9.4°C 47.0°F8.3°C 93% 9.8 mph SW15.8 kmh SW 12.0 mph19.3 kmh 30.02 in1016.6 mb - 0.00 in0.0 mm 0.05 in1.3 mm
03:00 AM 48.6°F9.2°C 47.0°F8.3°C 94% 15.0 mph WSW24.1 kmh WSW 19.0 mph30.6 kmh 30.02 in1016.6 mb - 0.00 in0.0 mm 0.05 in1.3 mm
02:50 AM 48.4°F9.1°C 46.8°F8.2°C 94% 12.0 mph WSW19.3 kmh WSW 21.0 mph33.8 kmh 30.01 in1016.3 mb - 0.01 in0.3 mm 0.05 in1.3 mm
02:40 AM 48.2°F9.0°C 46.6°F8.1°C 94% 11.3 mph SW18.2 kmh SW 12.0 mph19.3 kmh 30.00 in1015.9 mb - 0.01 in0.3 mm 0.04 in1.0 mm
02:30 AM 48.1°F8.9°C 46.2°F7.9°C 93% 14.0 mph SW22.5 kmh SW 18.0 mph29.0 kmh 30.00 in1015.9 mb - 0.00 in0.0 mm 0.03 in0.8 mm
02:20 AM 48.1°F8.9°C 46.2°F7.9°C 93% 12.0 mph SW19.3 kmh SW 15.0 mph24.1 kmh 30.00 in1015.9 mb - 0.02 in0.5 mm 0.03 in0.8 mm
02:10 AM 48.2°F9.0°C 45.7°F7.6°C 91% 9.2 mph SW14.8 kmh SW 16.0 mph25.7 kmh 30.00 in1015.9 mb - 0.02 in0.5 mm 0.02 in0.5 mm
02:00 AM 48.5°F9.2°C 45.7°F7.6°C 90% 9.6 mph WSW15.4 kmh WSW 15.0 mph24.1 kmh 30.00 in1015.9 mb - 0.01 in0.3 mm 0.01 in0.3 mm
01:50 AM 49.1°F9.5°C 45.4°F7.4°C 87% 11.1 mph SW17.9 kmh SW 11.0 mph17.7 kmh 30.00 in1015.9 mb - 0.00 in0.0 mm 0.00 in0.0 mm
01:40 AM 49.1°F9.5°C 45.1°F7.3°C 86% 10.5 mph SW16.9 kmh SW 16.0 mph25.7 kmh 30.00 in1015.9 mb - 0.00 in0.0 mm 0.00 in0.0 mm
01:30 AM 49.3°F9.6°C 45.0°F7.2°C 85% 9.1 mph SSW14.6 kmh SSW 12.0 mph19.3 kmh 30.00 in1015.9 mb - 0.00 in0.0 mm 0.00 in0.0 mm
01:20 AM 49.6°F9.8°C 45.0°F7.2°C 84% 10.8 mph SW17.4 kmh SW 14.0 mph22.5 kmh 30.01 in1016.3 mb - 0.00 in0.0 mm 0.00 in0.0 mm
01:10 AM 49.5°F9.7°C 44.9°F7.2°C 84% 11.2 mph WSW18.0 kmh WSW 18.0 mph29.0 kmh 30.01 in1016.3 mb - 0.00 in0.0 mm 0.00 in0.0 mm
01:00 AM 49.5°F9.7°C 45.2°F7.3°C 85% 10.4 mph SW16.7 kmh SW 17.0 mph27.4 kmh 30.01 in1016.3 mb - 0.00 in0.0 mm 0.00 in0.0 mm
12:50 AM 49.3°F9.6°C 45.3°F7.4°C 86% 8.2 mph SW13.2 kmh SW 12.0 mph19.3 kmh 30.01 in1016.3 mb - 0.00 in0.0 mm 0.00 in0.0 mm
12:40 AM 49.2°F9.6°C 45.2°F7.3°C 86% 6.8 mph W10.9 kmh W 9.0 mph14.5 kmh 30.02 in1016.6 mb - 0.00 in0.0 mm 0.00 in0.0 mm
12:30 AM 49.1°F9.5°C 45.1°F7.3°C 86% 7.2 mph SW11.6 kmh SW 12.0 mph19.3 kmh 30.02 in1016.6 mb - 0.00 in0.0 mm 0.00 in0.0 mm
12:20 AM 48.9°F9.4°C 45.2°F7.3°C 87% 9.6 mph SW15.4 kmh SW 14.0 mph22.5 kmh 30.02 in1016.6 mb - 0.00 in0.0 mm 0.00 in0.0 mm
12:10 AM 48.9°F9.4°C 45.2°F7.3°C 87% 5.7 mph SSW9.2 kmh SSW 10.0 mph16.1 kmh 30.03 in1016.9 mb - 0.00 in0.0 mm 0.00 in0.0 mm
12:00 AM 48.8°F9.3°C 45.4°F7.4°C 88% 10.0 mph S16.1 kmh S 12.0 mph19.3 kmh 30.04 in1017.3 mb - 0.00 in0.0 mm 0.00 in0.0 mm